sensor_id;sensor_type;location;lat;lon;timestamp;P1;durP1;ratioP1;P2;durP2;ratioP2
72261;SDS011;60173;52.112;8.648;2023-04-01T00:02:14;7.03;;;2.90;;
72261;SDS011;60173;52.112;8.648;2023-04-01T00:04:41;6.38;;;2.90;;
72261;SDS011;60173;52.112;8.648;2023-04-01T00:07:07;8.00;;;2.08;;
72261;SDS011;60173;52.112;8.648;2023-04-01T00:09:33;7.47;;;2.60;;
72261;SDS011;60173;52.112;8.648;2023-04-01T00:12:00;6.97;;;2.33;;
72261;SDS011;60173;52.112;8.648;2023-04-01T00:14:27;4.88;;;2.05;;
72261;SDS011;60173;52.112;8.648;2023-04-01T00:16:53;5.15;;;1.80;;
72261;SDS011;60173;52.112;8.648;2023-04-01T00:19:20;4.32;;;1.90;;
72261;SDS011;60173;52.112;8.648;2023-04-01T00:21:46;6.10;;;2.25;;
72261;SDS011;60173;52.112;8.648;2023-04-01T00:24:12;6.60;;;1.85;;
72261;SDS011;60173;52.112;8.648;2023-04-01T00:26:39;6.65;;;2.22;;
72261;SDS011;60173;52.112;8.648;2023-04-01T00:29:05;7.32;;;2.00;;
72261;SDS011;60173;52.112;8.648;2023-04-01T00:31:31;6.22;;;1.75;;
72261;SDS011;60173;52.112;8.648;2023-04-01T00:33:58;5.50;;;1.83;;
72261;SDS011;60173;52.112;8.648;2023-04-01T00:36:24;6.15;;;1.73;;
72261;SDS011;60173;52.112;8.648;2023-04-01T00:38:51;5.35;;;1.55;;
72261;SDS011;60173;52.112;8.648;2023-04-01T00:41:17;4.85;;;1.80;;
72261;SDS011;60173;52.112;8.648;2023-04-01T00:43:46;2.47;;;1.58;;
72261;SDS011;60173;52.112;8.648;2023-04-01T00:46:14;4.18;;;1.60;;
72261;SDS011;60173;52.112;8.648;2023-04-01T00:51:11;3.60;;;1.50;;
72261;SDS011;60173;52.112;8.648;2023-04-01T00:53:43;6.40;;;1.30;;
72261;SDS011;60173;52.112;8.648;2023-04-01T00:56:14;2.13;;;1.20;;
72261;SDS011;60173;52.112;8.648;2023-04-01T00:58:44;3.90;;;1.25;;
72261;SDS011;60173;52.112;8.648;2023-04-01T01:01:18;4.38;;;1.33;;
72261;SDS011;60173;52.112;8.648;2023-04-01T01:03:46;6.18;;;1.33;;
72261;SDS011;60173;52.112;8.648;2023-04-01T01:12:01;3.20;;;1.20;;
72261;SDS011;60173;52.112;8.648;2023-04-01T01:14:36;3.35;;;1.10;;
72261;SDS011;60173;52.112;8.648;2023-04-01T01:17:32;3.28;;;1.27;;
72261;SDS011;60173;52.112;8.648;2023-04-01T01:20:17;5.03;;;1.17;;
72261;SDS011;60173;52.112;8.648;2023-04-01T01:23:10;3.70;;;1.27;;
72261;SDS011;60173;52.112;8.648;2023-04-01T01:28:29;4.78;;;1.48;;
72261;SDS011;60173;52.112;8.648;2023-04-01T01:31:24;2.95;;;1.20;;
72261;SDS011;60173;52.112;8.648;2023-04-01T01:36:41;5.55;;;1.40;;
72261;SDS011;60173;52.112;8.648;2023-04-01T01:39:10;4.40;;;1.23;;
72261;SDS011;60173;52.112;8.648;2023-04-01T01:41:39;3.97;;;1.13;;
72261;SDS011;60173;52.112;8.648;2023-04-01T01:44:08;8.38;;;1.73;;
72261;SDS011;60173;52.112;8.648;2023-04-01T01:46:37;3.30;;;1.30;;
72261;SDS011;60173;52.112;8.648;2023-04-01T01:49:05;3.70;;;1.17;;
72261;SDS011;60173;52.112;8.648;2023-04-01T01:51:33;4.00;;;1.13;;
72261;SDS011;60173;52.112;8.648;2023-04-01T01:54:00;3.53;;;1.30;;
72261;SDS011;60173;52.112;8.648;2023-04-01T01:56:26;2.42;;;1.15;;
72261;SDS011;60173;52.112;8.648;2023-04-01T01:58:56;2.85;;;1.08;;
72261;SDS011;60173;52.112;8.648;2023-04-01T02:01:29;4.25;;;1.35;;
72261;SDS011;60173;52.112;8.648;2023-04-01T02:03:59;3.65;;;1.10;;
72261;SDS011;60173;52.112;8.648;2023-04-01T02:06:27;2.95;;;1.00;;
72261;SDS011;60173;52.112;8.648;2023-04-01T02:09:00;2.80;;;1.02;;
72261;SDS011;60173;52.112;8.648;2023-04-01T02:11:41;3.42;;;0.80;;
72261;SDS011;60173;52.112;8.648;2023-04-01T02:14:17;2.70;;;0.80;;
72261;SDS011;60173;52.112;8.648;2023-04-01T02:17:09;2.22;;;0.80;;
72261;SDS011;60173;52.112;8.648;2023-04-01T02:19:39;5.95;;;0.95;;
72261;SDS011;60173;52.112;8.648;2023-04-01T02:22:13;1.52;;;0.70;;
72261;SDS011;60173;52.112;8.648;2023-04-01T02:24:44;3.45;;;0.98;;
72261;SDS011;60173;52.112;8.648;2023-04-01T02:27:11;2.90;;;1.05;;
72261;SDS011;60173;52.112;8.648;2023-04-01T02:29:38;3.08;;;0.70;;
72261;SDS011;60173;52.112;8.648;2023-04-01T02:32:05;6.07;;;0.80;;
72261;SDS011;60173;52.112;8.648;2023-04-01T02:34:33;2.72;;;0.65;;
72261;SDS011;60173;52.112;8.648;2023-04-01T02:36:59;1.65;;;0.82;;
72261;SDS011;60173;52.112;8.648;2023-04-01T02:39:26;2.10;;;0.90;;
72261;SDS011;60173;52.112;8.648;2023-04-01T02:41:53;5.28;;;0.88;;
72261;SDS011;60173;52.112;8.648;2023-04-01T02:44:19;0.82;;;0.60;;
72261;SDS011;60173;52.112;8.648;2023-04-01T02:46:46;5.15;;;0.90;;
72261;SDS011;60173;52.112;8.648;2023-04-01T02:49:12;4.30;;;1.33;;
72261;SDS011;60173;52.112;8.648;2023-04-01T02:51:38;2.83;;;0.60;;
72261;SDS011;60173;52.112;8.648;2023-04-01T02:54:05;2.50;;;0.77;;
72261;SDS011;60173;52.112;8.648;2023-04-01T02:56:31;4.65;;;0.95;;
72261;SDS011;60173;52.112;8.648;2023-04-01T02:58:58;2.97;;;0.95;;
72261;SDS011;60173;52.112;8.648;2023-04-01T03:01:24;3.75;;;0.90;;
72261;SDS011;60173;52.112;8.648;2023-04-01T03:03:50;3.50;;;1.02;;
72261;SDS011;60173;52.112;8.648;2023-04-01T03:06:17;2.55;;;0.95;;
72261;SDS011;60173;52.112;8.648;2023-04-01T03:08:44;5.18;;;0.77;;
72261;SDS011;60173;52.112;8.648;2023-04-01T03:11:11;1.60;;;0.50;;
72261;SDS011;60173;52.112;8.648;2023-04-01T03:13:37;3.67;;;0.98;;
72261;SDS011;60173;52.112;8.648;2023-04-01T03:16:04;2.10;;;0.60;;
72261;SDS011;60173;52.112;8.648;2023-04-01T03:18:30;3.33;;;0.73;;
72261;SDS011;60173;52.112;8.648;2023-04-01T03:20:57;1.88;;;0.80;;
72261;SDS011;60173;52.112;8.648;2023-04-01T03:23:23;2.53;;;0.60;;
72261;SDS011;60173;52.112;8.648;2023-04-01T03:25:50;2.20;;;0.82;;
72261;SDS011;60173;52.112;8.648;2023-04-01T03:28:16;2.55;;;0.70;;
72261;SDS011;60173;52.112;8.648;2023-04-01T03:30:42;1.58;;;0.57;;
72261;SDS011;60173;52.112;8.648;2023-04-01T03:33:09;2.95;;;0.90;;
72261;SDS011;60173;52.112;8.648;2023-04-01T03:35:35;3.55;;;1.02;;
72261;SDS011;60173;52.112;8.648;2023-04-01T03:38:01;2.83;;;0.65;;
72261;SDS011;60173;52.112;8.648;2023-04-01T03:40:28;1.08;;;0.60;;
72261;SDS011;60173;52.112;8.648;2023-04-01T03:42:55;2.20;;;0.73;;
72261;SDS011;60173;52.112;8.648;2023-04-01T03:45:21;2.03;;;0.70;;
72261;SDS011;60173;52.112;8.648;2023-04-01T03:47:47;2.95;;;0.90;;
72261;SDS011;60173;52.112;8.648;2023-04-01T03:50:14;2.95;;;0.80;;
72261;SDS011;60173;52.112;8.648;2023-04-01T03:52:40;1.02;;;0.63;;
72261;SDS011;60173;52.112;8.648;2023-04-01T03:55:06;3.55;;;0.70;;
72261;SDS011;60173;52.112;8.648;2023-04-01T03:57:33;1.65;;;0.55;;
72261;SDS011;60173;52.112;8.648;2023-04-01T03:59:59;2.55;;;0.60;;
72261;SDS011;60173;52.112;8.648;2023-04-01T04:02:26;2.05;;;0.95;;
72261;SDS011;60173;52.112;8.648;2023-04-01T04:04:52;2.25;;;0.60;;
72261;SDS011;60173;52.112;8.648;2023-04-01T04:07:18;2.38;;;0.75;;
72261;SDS011;60173;52.112;8.648;2023-04-01T04:09:45;5.82;;;0.93;;
72261;SDS011;60173;52.112;8.648;2023-04-01T04:12:11;2.50;;;0.95;;
72261;SDS011;60173;52.112;8.648;2023-04-01T04:14:37;3.83;;;0.88;;
72261;SDS011;60173;52.112;8.648;2023-04-01T04:17:04;1.63;;;0.88;;
72261;SDS011;60173;52.112;8.648;2023-04-01T04:19:33;1.92;;;0.70;;
72261;SDS011;60173;52.112;8.648;2023-04-01T04:22:00;0.98;;;0.60;;
72261;SDS011;60173;52.112;8.648;2023-04-01T04:24:26;1.17;;;0.80;;
72261;SDS011;60173;52.112;8.648;2023-04-01T04:26:52;1.50;;;0.80;;
72261;SDS011;60173;52.112;8.648;2023-04-01T04:29:19;3.00;;;0.93;;
72261;SDS011;60173;52.112;8.648;2023-04-01T04:31:45;4.57;;;1.08;;
72261;SDS011;60173;52.112;8.648;2023-04-01T04:34:11;2.45;;;0.90;;
72261;SDS011;60173;52.112;8.648;2023-04-01T04:36:38;4.38;;;1.00;;
72261;SDS011;60173;52.112;8.648;2023-04-01T04:39:04;4.72;;;1.10;;
72261;SDS011;60173;52.112;8.648;2023-04-01T04:41:30;2.35;;;0.82;;
72261;SDS011;60173;52.112;8.648;2023-04-01T04:43:57;4.57;;;0.75;;
72261;SDS011;60173;52.112;8.648;2023-04-01T04:46:23;3.95;;;0.70;;
72261;SDS011;60173;52.112;8.648;2023-04-01T04:48:50;5.18;;;0.90;;
72261;SDS011;60173;52.112;8.648;2023-04-01T04:51:17;7.22;;;1.05;;
72261;SDS011;60173;52.112;8.648;2023-04-01T04:53:45;2.30;;;0.70;;
72261;SDS011;60173;52.112;8.648;2023-04-01T04:56:11;2.33;;;0.80;;
72261;SDS011;60173;52.112;8.648;2023-04-01T04:58:38;2.35;;;1.00;;
72261;SDS011;60173;52.112;8.648;2023-04-01T05:01:09;1.70;;;0.90;;
72261;SDS011;60173;52.112;8.648;2023-04-01T05:03:37;3.72;;;1.00;;
72261;SDS011;60173;52.112;8.648;2023-04-01T05:06:04;1.92;;;0.80;;
72261;SDS011;60173;52.112;8.648;2023-04-01T05:08:32;4.07;;;1.30;;
72261;SDS011;60173;52.112;8.648;2023-04-01T05:10:59;3.10;;;1.23;;
72261;SDS011;60173;52.112;8.648;2023-04-01T05:13:26;2.05;;;0.90;;
72261;SDS011;60173;52.112;8.648;2023-04-01T05:15:53;2.58;;;0.90;;
72261;SDS011;60173;52.112;8.648;2023-04-01T05:18:19;2.75;;;0.98;;
72261;SDS011;60173;52.112;8.648;2023-04-01T05:20:49;2.00;;;0.75;;
72261;SDS011;60173;52.112;8.648;2023-04-01T05:23:18;2.80;;;0.90;;
72261;SDS011;60173;52.112;8.648;2023-04-01T05:25:44;2.25;;;1.00;;
72261;SDS011;60173;52.112;8.648;2023-04-01T05:28:11;2.20;;;1.05;;
72261;SDS011;60173;52.112;8.648;2023-04-01T05:30:39;2.10;;;0.75;;
72261;SDS011;60173;52.112;8.648;2023-04-01T05:33:06;2.08;;;0.90;;
72261;SDS011;60173;52.112;8.648;2023-04-01T05:35:33;2.45;;;0.82;;
72261;SDS011;60173;52.112;8.648;2023-04-01T05:38:00;2.83;;;0.90;;
72261;SDS011;60173;52.112;8.648;2023-04-01T05:40:27;1.02;;;0.77;;
72261;SDS011;60173;52.112;8.648;2023-04-01T05:42:54;1.50;;;0.88;;
72261;SDS011;60173;52.112;8.648;2023-04-01T05:45:20;1.23;;;0.77;;
72261;SDS011;60173;52.112;8.648;2023-04-01T05:47:47;2.50;;;0.90;;
72261;SDS011;60173;52.112;8.648;2023-04-01T05:50:13;1.05;;;0.80;;
72261;SDS011;60173;52.112;8.648;2023-04-01T05:52:40;2.38;;;0.82;;
72261;SDS011;60173;52.112;8.648;2023-04-01T05:55:06;1.00;;;0.73;;
72261;SDS011;60173;52.112;8.648;2023-04-01T05:57:33;1.75;;;0.77;;
72261;SDS011;60173;52.112;8.648;2023-04-01T05:59:59;1.52;;;0.80;;
72261;SDS011;60173;52.112;8.648;2023-04-01T06:02:26;2.38;;;0.80;;
72261;SDS011;60173;52.112;8.648;2023-04-01T06:04:54;1.70;;;0.90;;
72261;SDS011;60173;52.112;8.648;2023-04-01T06:07:37;0.65;;;0.55;;
72261;SDS011;60173;52.112;8.648;2023-04-01T06:10:08;3.08;;;1.00;;
72261;SDS011;60173;52.112;8.648;2023-04-01T06:12:40;2.22;;;0.90;;
72261;SDS011;60173;52.112;8.648;2023-04-01T06:15:27;1.77;;;0.70;;
72261;SDS011;60173;52.112;8.648;2023-04-01T06:29:44;3.10;;;0.80;;
72261;SDS011;60173;52.112;8.648;2023-04-01T06:32:22;1.15;;;0.60;;
72261;SDS011;60173;52.112;8.648;2023-04-01T06:37:55;1.35;;;0.70;;
72261;SDS011;60173;52.112;8.648;2023-04-01T06:40:40;2.70;;;0.80;;
72261;SDS011;60173;52.112;8.648;2023-04-01T06:43:45;0.80;;;0.80;;
72261;SDS011;60173;52.112;8.648;2023-04-01T06:49:04;2.38;;;1.00;;
72261;SDS011;60173;52.112;8.648;2023-04-01T06:54:14;1.50;;;0.80;;
72261;SDS011;60173;52.112;8.648;2023-04-01T06:56:48;0.57;;;0.57;;
72261;SDS011;60173;52.112;8.648;2023-04-01T06:59:20;1.35;;;0.60;;
72261;SDS011;60173;52.112;8.648;2023-04-01T07:02:38;2.17;;;0.60;;
72261;SDS011;60173;52.112;8.648;2023-04-01T07:04:44;1.88;;;0.80;;
72261;SDS011;60173;52.112;8.648;2023-04-01T07:07:31;1.20;;;0.60;;
72261;SDS011;60173;52.112;8.648;2023-04-01T07:10:31;1.88;;;0.90;;
72261;SDS011;60173;52.112;8.648;2023-04-01T07:12:55;3.25;;;0.80;;
72261;SDS011;60173;52.112;8.648;2023-04-01T07:15:26;2.20;;;0.70;;
72261;SDS011;60173;52.112;8.648;2023-04-01T07:18:05;1.17;;;0.73;;
72261;SDS011;60173;52.112;8.648;2023-04-01T07:20:38;1.95;;;0.80;;
72261;SDS011;60173;52.112;8.648;2023-04-01T07:23:26;2.05;;;1.15;;
72261;SDS011;60173;52.112;8.648;2023-04-01T07:26:16;3.30;;;0.82;;
72261;SDS011;60173;52.112;8.648;2023-04-01T07:28:45;1.50;;;0.90;;
72261;SDS011;60173;52.112;8.648;2023-04-01T07:31:17;3.33;;;1.17;;
72261;SDS011;60173;52.112;8.648;2023-04-01T07:33:54;2.35;;;1.17;;
72261;SDS011;60173;52.112;8.648;2023-04-01T07:42:25;2.55;;;1.10;;
72261;SDS011;60173;52.112;8.648;2023-04-01T07:50:47;2.83;;;1.13;;
72261;SDS011;60173;52.112;8.648;2023-04-01T07:53:33;3.63;;;1.30;;
72261;SDS011;60173;52.112;8.648;2023-04-01T07:56:10;4.07;;;1.98;;
72261;SDS011;60173;52.112;8.648;2023-04-01T08:01:26;2.63;;;1.40;;
72261;SDS011;60173;52.112;8.648;2023-04-01T08:09:26;5.32;;;1.48;;
72261;SDS011;60173;52.112;8.648;2023-04-01T08:15:27;2.95;;;1.08;;
72261;SDS011;60173;52.112;8.648;2023-04-01T08:21:02;2.95;;;1.20;;
72261;SDS011;60173;52.112;8.648;2023-04-01T08:23:38;2.03;;;1.15;;
72261;SDS011;60173;52.112;8.648;2023-04-01T08:26:13;2.05;;;1.05;;
72261;SDS011;60173;52.112;8.648;2023-04-01T08:28:59;1.05;;;0.90;;
72261;SDS011;60173;52.112;8.648;2023-04-01T08:31:35;3.40;;;1.10;;
72261;SDS011;60173;52.112;8.648;2023-04-01T08:34:10;2.72;;;1.25;;
72261;SDS011;60173;52.112;8.648;2023-04-01T08:36:47;4.15;;;1.30;;
72261;SDS011;60173;52.112;8.648;2023-04-01T08:39:20;3.72;;;1.10;;
72261;SDS011;60173;52.112;8.648;2023-04-01T08:45:02;3.92;;;1.10;;
72261;SDS011;60173;52.112;8.648;2023-04-01T08:47:46;3.70;;;1.35;;
72261;SDS011;60173;52.112;8.648;2023-04-01T08:50:36;1.45;;;0.95;;
72261;SDS011;60173;52.112;8.648;2023-04-01T08:56:22;2.22;;;1.27;;
72261;SDS011;60173;52.112;8.648;2023-04-01T09:10:55;2.50;;;1.52;;
72261;SDS011;60173;52.112;8.648;2023-04-01T09:16:04;1.70;;;1.20;;
72261;SDS011;60173;52.112;8.648;2023-04-01T09:24:18;2.90;;;1.20;;
72261;SDS011;60173;52.112;8.648;2023-04-01T09:26:59;1.53;;;0.73;;
72261;SDS011;60173;52.112;8.648;2023-04-01T09:32:11;1.10;;;0.90;;
72261;SDS011;60173;52.112;8.648;2023-04-01T09:41:14;1.33;;;1.00;;
72261;SDS011;60173;52.112;8.648;2023-04-01T09:43:39;4.32;;;1.38;;
72261;SDS011;60173;52.112;8.648;2023-04-01T09:46:24;1.42;;;1.10;;
72261;SDS011;60173;52.112;8.648;2023-04-01T09:49:21;1.25;;;1.00;;
72261;SDS011;60173;52.112;8.648;2023-04-01T09:58:00;0.95;;;0.90;;
72261;SDS011;60173;52.112;8.648;2023-04-01T10:00:43;1.85;;;0.73;;
72261;SDS011;60173;52.112;8.648;2023-04-01T10:17:35;1.05;;;0.75;;
72261;SDS011;60173;52.112;8.648;2023-04-01T10:20:08;1.23;;;0.77;;
72261;SDS011;60173;52.112;8.648;2023-04-01T10:23:02;2.20;;;0.70;;
72261;SDS011;60173;52.112;8.648;2023-04-01T10:28:47;2.50;;;0.70;;
72261;SDS011;60173;52.112;8.648;2023-04-01T10:31:34;1.70;;;0.80;;
72261;SDS011;60173;52.112;8.648;2023-04-01T10:34:22;1.52;;;0.80;;
72261;SDS011;60173;52.112;8.648;2023-04-01T10:42:47;0.88;;;0.88;;
72261;SDS011;60173;52.112;8.648;2023-04-01T10:51:20;0.68;;;0.60;;
72261;SDS011;60173;52.112;8.648;2023-04-01T10:56:33;0.88;;;0.75;;
72261;SDS011;60173;52.112;8.648;2023-04-01T11:22:36;0.98;;;0.85;;
72261;SDS011;60173;52.112;8.648;2023-04-01T11:28:21;0.60;;;0.60;;
72261;SDS011;60173;52.112;8.648;2023-04-01T11:34:04;0.70;;;0.70;;
72261;SDS011;60173;52.112;8.648;2023-04-01T11:39:22;0.70;;;0.70;;
72261;SDS011;60173;52.112;8.648;2023-04-01T11:45:16;1.05;;;0.98;;
72261;SDS011;60173;52.112;8.648;2023-04-01T11:47:48;0.60;;;0.60;;
72261;SDS011;60173;52.112;8.648;2023-04-01T11:50:37;1.27;;;0.90;;
72261;SDS011;60173;52.112;8.648;2023-04-01T11:53:12;1.10;;;1.00;;
72261;SDS011;60173;52.112;8.648;2023-04-01T11:58:44;2.33;;;1.00;;
72261;SDS011;60173;52.112;8.648;2023-04-01T12:04:16;1.73;;;1.20;;
72261;SDS011;60173;52.112;8.648;2023-04-01T12:09:41;1.63;;;1.10;;
72261;SDS011;60173;52.112;8.648;2023-04-01T12:21:37;0.80;;;0.80;;
72261;SDS011;60173;52.112;8.648;2023-04-01T12:26:55;0.80;;;0.80;;
72261;SDS011;60173;52.112;8.648;2023-04-01T12:32:56;1.30;;;0.95;;
72261;SDS011;60173;52.112;8.648;2023-04-01T12:35:18;2.57;;;0.77;;
72261;SDS011;60173;52.112;8.648;2023-04-01T12:40:40;1.95;;;0.80;;
72261;SDS011;60173;52.112;8.648;2023-04-01T12:46:41;1.00;;;0.90;;
72261;SDS011;60173;52.112;8.648;2023-04-01T13:03:39;1.02;;;0.80;;
72261;SDS011;60173;52.112;8.648;2023-04-01T13:17:00;0.85;;;0.75;;
72261;SDS011;60173;52.112;8.648;2023-04-01T13:19:58;1.05;;;0.60;;
72261;SDS011;60173;52.112;8.648;2023-04-01T13:25:51;0.70;;;0.70;;
72261;SDS011;60173;52.112;8.648;2023-04-01T13:34:05;1.52;;;0.80;;
72261;SDS011;60173;52.112;8.648;2023-04-01T13:36:50;0.90;;;0.80;;
72261;SDS011;60173;52.112;8.648;2023-04-01T13:42:08;0.60;;;0.60;;
72261;SDS011;60173;52.112;8.648;2023-04-01T13:44:46;0.60;;;0.50;;
72261;SDS011;60173;52.112;8.648;2023-04-01T13:47:23;0.35;;;0.35;;
72261;SDS011;60173;52.112;8.648;2023-04-01T14:04:40;0.50;;;0.50;;
72261;SDS011;60173;52.112;8.648;2023-04-01T14:07:13;0.60;;;0.60;;
72261;SDS011;60173;52.112;8.648;2023-04-01T14:10:00;0.50;;;0.50;;
72261;SDS011;60173;52.112;8.648;2023-04-01T14:27:24;0.80;;;0.80;;
72261;SDS011;60173;52.112;8.648;2023-04-01T14:29:59;1.00;;;0.55;;
72261;SDS011;60173;52.112;8.648;2023-04-01T14:32:51;0.60;;;0.60;;
72261;SDS011;60173;52.112;8.648;2023-04-01T14:35:34;0.60;;;0.60;;
72261;SDS011;60173;52.112;8.648;2023-04-01T14:38:10;0.73;;;0.50;;
72261;SDS011;60173;52.112;8.648;2023-04-01T14:41:02;0.70;;;0.70;;
72261;SDS011;60173;52.112;8.648;2023-04-01T14:46:48;0.70;;;0.70;;
72261;SDS011;60173;52.112;8.648;2023-04-01T14:49:40;0.70;;;0.70;;
72261;SDS011;60173;52.112;8.648;2023-04-01T14:52:16;0.73;;;0.73;;
72261;SDS011;60173;52.112;8.648;2023-04-01T14:54:54;0.65;;;0.65;;
72261;SDS011;60173;52.112;8.648;2023-04-01T14:57:24;1.55;;;0.80;;
72261;SDS011;60173;52.112;8.648;2023-04-01T15:00:01;1.35;;;0.85;;
72261;SDS011;60173;52.112;8.648;2023-04-01T15:07:47;1.17;;;0.85;;
72261;SDS011;60173;52.112;8.648;2023-04-01T15:18:37;0.70;;;0.70;;
72261;SDS011;60173;52.112;8.648;2023-04-01T15:21:15;1.15;;;1.00;;
72261;SDS011;60173;52.112;8.648;2023-04-01T15:24:07;1.13;;;0.80;;
72261;SDS011;60173;52.112;8.648;2023-04-01T15:29:32;1.00;;;0.80;;
72261;SDS011;60173;52.112;8.648;2023-04-01T15:32:05;1.50;;;1.00;;
72261;SDS011;60173;52.112;8.648;2023-04-01T15:37:31;1.70;;;1.42;;
72261;SDS011;60173;52.112;8.648;2023-04-01T15:42:54;1.05;;;0.80;;
72261;SDS011;60173;52.112;8.648;2023-04-01T15:45:49;4.18;;;2.55;;
72261;SDS011;60173;52.112;8.648;2023-04-01T15:51:06;1.80;;;1.10;;
72261;SDS011;60173;52.112;8.648;2023-04-01T15:59:08;0.70;;;0.50;;
72261;SDS011;60173;52.112;8.648;2023-04-01T16:01:55;1.02;;;0.80;;
72261;SDS011;60173;52.112;8.648;2023-04-01T16:04:42;1.58;;;1.08;;
72261;SDS011;60173;52.112;8.648;2023-04-01T16:10:03;1.88;;;1.00;;
72261;SDS011;60173;52.112;8.648;2023-04-01T16:15:24;1.02;;;0.68;;
72261;SDS011;60173;52.112;8.648;2023-04-01T16:23:40;1.70;;;0.80;;
72261;SDS011;60173;52.112;8.648;2023-04-01T16:26:22;2.45;;;1.83;;
72261;SDS011;60173;52.112;8.648;2023-04-01T16:28:55;1.33;;;1.02;;
72261;SDS011;60173;52.112;8.648;2023-04-01T16:31:44;1.95;;;1.50;;
72261;SDS011;60173;52.112;8.648;2023-04-01T16:34:19;10.82;;;5.80;;
72261;SDS011;60173;52.112;8.648;2023-04-01T16:36:54;4.05;;;3.05;;
72261;SDS011;60173;52.112;8.648;2023-04-01T16:48:00;2.90;;;1.80;;
72261;SDS011;60173;52.112;8.648;2023-04-01T16:58:35;2.97;;;2.50;;
72261;SDS011;60173;52.112;8.648;2023-04-01T17:01:07;2.33;;;2.13;;
72261;SDS011;60173;52.112;8.648;2023-04-01T17:03:40;1.52;;;1.40;;
72261;SDS011;60173;52.112;8.648;2023-04-01T17:06:19;1.35;;;1.25;;
72261;SDS011;60173;52.112;8.648;2023-04-01T17:11:27;1.50;;;1.20;;
72261;SDS011;60173;52.112;8.648;2023-04-01T17:14:09;1.90;;;1.33;;
72261;SDS011;60173;52.112;8.648;2023-04-01T17:19:33;2.30;;;2.10;;
72261;SDS011;60173;52.112;8.648;2023-04-01T17:33:27;2.40;;;2.20;;
72261;SDS011;60173;52.112;8.648;2023-04-01T17:38:53;3.50;;;2.60;;
72261;SDS011;60173;52.112;8.648;2023-04-01T17:41:41;3.70;;;2.40;;
72261;SDS011;60173;52.112;8.648;2023-04-01T17:49:37;2.38;;;2.17;;
72261;SDS011;60173;52.112;8.648;2023-04-01T17:58:03;2.35;;;2.15;;
72261;SDS011;60173;52.112;8.648;2023-04-01T18:00:58;3.13;;;2.65;;
72261;SDS011;60173;52.112;8.648;2023-04-01T18:06:19;3.75;;;2.55;;
72261;SDS011;60173;52.112;8.648;2023-04-01T18:09:08;3.67;;;3.28;;
72261;SDS011;60173;52.112;8.648;2023-04-01T18:11:48;3.20;;;2.90;;
72261;SDS011;60173;52.112;8.648;2023-04-01T18:14:41;2.95;;;2.65;;
72261;SDS011;60173;52.112;8.648;2023-04-01T18:17:53;3.20;;;2.80;;
72261;SDS011;60173;52.112;8.648;2023-04-01T18:20:31;3.60;;;2.67;;
72261;SDS011;60173;52.112;8.648;2023-04-01T18:26:04;3.20;;;2.28;;
72261;SDS011;60173;52.112;8.648;2023-04-01T18:28:43;2.75;;;2.20;;
72261;SDS011;60173;52.112;8.648;2023-04-01T18:31:19;2.25;;;2.05;;
72261;SDS011;60173;52.112;8.648;2023-04-01T18:39:18;2.53;;;2.33;;
72261;SDS011;60173;52.112;8.648;2023-04-01T18:41:51;3.38;;;2.50;;
72261;SDS011;60173;52.112;8.648;2023-04-01T18:44:30;2.42;;;2.22;;
72261;SDS011;60173;52.112;8.648;2023-04-01T18:52:48;2.42;;;2.22;;
72261;SDS011;60173;52.112;8.648;2023-04-01T18:55:35;4.03;;;2.60;;
72261;SDS011;60173;52.112;8.648;2023-04-01T19:03:32;3.42;;;3.00;;
72261;SDS011;60173;52.112;8.648;2023-04-01T19:06:23;4.40;;;3.88;;
72261;SDS011;60173;52.112;8.648;2023-04-01T19:09:32;3.95;;;3.40;;
72261;SDS011;60173;52.112;8.648;2023-04-01T19:15:09;4.70;;;4.30;;
72261;SDS011;60173;52.112;8.648;2023-04-01T19:17:52;3.92;;;3.63;;
72261;SDS011;60173;52.112;8.648;2023-04-01T19:20:29;4.05;;;3.65;;
72261;SDS011;60173;52.112;8.648;2023-04-01T19:23:25;3.95;;;3.65;;
72261;SDS011;60173;52.112;8.648;2023-04-01T19:25:57;4.88;;;4.07;;
72261;SDS011;60173;52.112;8.648;2023-04-01T19:28:30;9.50;;;6.00;;
72261;SDS011;60173;52.112;8.648;2023-04-01T19:31:18;5.45;;;4.70;;
72261;SDS011;60173;52.112;8.648;2023-04-01T19:34:07;4.63;;;4.22;;
72261;SDS011;60173;52.112;8.648;2023-04-01T19:36:49;4.10;;;3.70;;
72261;SDS011;60173;52.112;8.648;2023-04-01T19:42:06;4.60;;;3.83;;
72261;SDS011;60173;52.112;8.648;2023-04-01T19:50:34;3.55;;;3.05;;
72261;SDS011;60173;52.112;8.648;2023-04-01T19:53:18;3.15;;;2.85;;
72261;SDS011;60173;52.112;8.648;2023-04-01T19:55:57;4.10;;;2.95;;
72261;SDS011;60173;52.112;8.648;2023-04-01T19:58:36;3.10;;;2.75;;
72261;SDS011;60173;52.112;8.648;2023-04-01T20:01:16;2.75;;;2.40;;
72261;SDS011;60173;52.112;8.648;2023-04-01T20:04:03;4.15;;;2.88;;
72261;SDS011;60173;52.112;8.648;2023-04-01T20:06:38;3.50;;;3.20;;
72261;SDS011;60173;52.112;8.648;2023-04-01T20:09:25;10.27;;;5.95;;
72261;SDS011;60173;52.112;8.648;2023-04-01T20:14:58;3.70;;;3.10;;
72261;SDS011;60173;52.112;8.648;2023-04-01T20:50:29;5.65;;;3.70;;
72261;SDS011;60173;52.112;8.648;2023-04-01T20:58:53;2.33;;;2.10;;
72261;SDS011;60173;52.112;8.648;2023-04-01T21:01:32;3.25;;;2.35;;
72261;SDS011;60173;52.112;8.648;2023-04-01T21:09:45;3.05;;;2.22;;
72261;SDS011;60173;52.112;8.648;2023-04-01T21:22:54;5.25;;;4.22;;
72261;SDS011;60173;52.112;8.648;2023-04-01T21:31:36;4.07;;;2.92;;
72261;SDS011;60173;52.112;8.648;2023-04-01T21:42:11;8.95;;;7.15;;
72261;SDS011;60173;52.112;8.648;2023-04-01T21:50:43;4.50;;;2.78;;
72261;SDS011;60173;52.112;8.648;2023-04-01T21:56:22;4.63;;;2.90;;
72261;SDS011;60173;52.112;8.648;2023-04-01T22:01:26;6.78;;;2.80;;
72261;SDS011;60173;52.112;8.648;2023-04-01T22:09:21;4.13;;;2.50;;
72261;SDS011;60173;52.112;8.648;2023-04-01T22:11:58;5.20;;;3.20;;
72261;SDS011;60173;52.112;8.648;2023-04-01T22:14:38;3.83;;;2.60;;
72261;SDS011;60173;52.112;8.648;2023-04-01T22:17:22;4.25;;;2.80;;
72261;SDS011;60173;52.112;8.648;2023-04-01T22:20:03;4.30;;;3.10;;
72261;SDS011;60173;52.112;8.648;2023-04-01T22:25:20;6.97;;;3.90;;
72261;SDS011;60173;52.112;8.648;2023-04-01T22:27:52;4.75;;;3.38;;
72261;SDS011;60173;52.112;8.648;2023-04-01T22:30:42;7.78;;;3.60;;
72261;SDS011;60173;52.112;8.648;2023-04-01T22:33:21;7.35;;;3.20;;
72261;SDS011;60173;52.112;8.648;2023-04-01T22:41:57;2.97;;;2.40;;
72261;SDS011;60173;52.112;8.648;2023-04-01T22:44:29;6.03;;;3.45;;
72261;SDS011;60173;52.112;8.648;2023-04-01T22:49:53;3.78;;;2.80;;
72261;SDS011;60173;52.112;8.648;2023-04-01T22:52:31;2.92;;;2.20;;
72261;SDS011;60173;52.112;8.648;2023-04-01T22:55:11;4.22;;;2.80;;
72261;SDS011;60173;52.112;8.648;2023-04-01T22:57:44;3.70;;;3.30;;
72261;SDS011;60173;52.112;8.648;2023-04-01T23:00:21;4.65;;;3.13;;
72261;SDS011;60173;52.112;8.648;2023-04-01T23:03:00;4.70;;;3.10;;
72261;SDS011;60173;52.112;8.648;2023-04-01T23:05:39;4.93;;;3.03;;
72261;SDS011;60173;52.112;8.648;2023-04-01T23:16:50;2.97;;;2.40;;
72261;SDS011;60173;52.112;8.648;2023-04-01T23:22:26;6.85;;;4.95;;
72261;SDS011;60173;52.112;8.648;2023-04-01T23:27:51;4.25;;;3.30;;
72261;SDS011;60173;52.112;8.648;2023-04-01T23:35:48;6.03;;;3.88;;
72261;SDS011;60173;52.112;8.648;2023-04-01T23:38:37;6.65;;;4.25;;
72261;SDS011;60173;52.112;8.648;2023-04-01T23:41:05;7.78;;;4.13;;
72261;SDS011;60173;52.112;8.648;2023-04-01T23:43:36;6.25;;;4.10;;
72261;SDS011;60173;52.112;8.648;2023-04-01T23:46:06;5.43;;;3.45;;
72261;SDS011;60173;52.112;8.648;2023-04-01T23:48:35;6.15;;;3.65;;
72261;SDS011;60173;52.112;8.648;2023-04-01T23:51:13;7.47;;;4.90;;
72261;SDS011;60173;52.112;8.648;2023-04-01T23:53:55;4.75;;;3.88;;
72261;SDS011;60173;52.112;8.648;2023-04-01T23:56:35;5.68;;;4.25;;
72261;SDS011;60173;52.112;8.648;2023-04-01T23:59:04;6.63;;;4.30;;
